Time;durP1;ratioP1;P1;durP2;ratioP2;P2;SDS_P1;SDS_P2;PMS_P1;PMS_P2;Temp;Humidity;BMP_temperature;BMP_pressure;BME280_temperature;BME280_humidity;BME280_pressure;Samples;Min_cycle;Max_cycle;Signal;HPM_P1;HPM_P2
2024/05/04 00:00:03;;;;;;;9.37;6.17;;;8.90;99.90;;;;;;5487645;26;20202;-74
2024/05/04 00:02:28;;;;;;;7.17;6.50;;;8.90;99.90;;;;;;5490899;26;20282;-73
2024/05/04 00:04:54;;;;;;;8.63;6.23;;;8.90;99.90;;;;;;5489104;26;20560;-74
2024/05/04 00:07:19;;;;;;;6.83;6.13;;;8.80;99.90;;;;;;5488623;26;20384;-74
2024/05/04 00:09:45;;;;;;;7.27;5.63;;;8.80;99.90;;;;;;5488817;26;20210;-73
2024/05/04 00:12:11;;;;;;;8.20;5.73;;;8.80;99.90;;;;;;5488997;26;20210;-74
2024/05/04 00:14:36;;;;;;;6.50;5.90;;;8.70;99.90;;;;;;5491350;26;20207;-73
2024/05/04 00:17:02;;;;;;;6.63;5.63;;;8.70;99.90;;;;;;5490577;26;20797;-74
2024/05/04 00:19:27;;;;;;;6.33;5.83;;;8.60;99.90;;;;;;5491895;26;20261;-74
2024/05/04 00:21:53;;;;;;;6.13;5.47;;;8.70;99.90;;;;;;5491931;26;20559;-74
2024/05/04 00:24:20;;;;;;;8.60;6.20;;;8.60;99.90;;;;;;5488697;26;20206;-74
2024/05/04 00:26:45;;;;;;;7.10;6.40;;;8.60;99.90;;;;;;5489409;26;20261;-74
2024/05/04 00:29:11;;;;;;;5.70;5.30;;;8.60;99.90;;;;;;5490880;26;20298;-74
2024/05/04 00:31:36;;;;;;;6.77;6.17;;;8.60;99.90;;;;;;5503504;26;20225;-74
2024/05/04 00:34:02;;;;;;;6.90;6.20;;;8.50;99.90;;;;;;5527665;26;20209;-74
2024/05/04 00:36:28;;;;;;;6.43;5.83;;;8.50;99.90;;;;;;5527995;26;20209;-74
2024/05/04 00:38:54;;;;;;;6.63;5.90;;;8.50;99.90;;;;;;5525688;26;20818;-74
2024/05/04 00:41:20;;;;;;;6.83;6.13;;;8.50;99.90;;;;;;5525524;26;20217;-74
2024/05/04 00:43:45;;;;;;;8.43;6.27;;;8.40;99.90;;;;;;5525422;26;20248;-74
2024/05/04 00:46:11;;;;;;;9.17;7.00;;;8.50;99.90;;;;;;5514762;26;20222;-74
2024/05/04 00:48:37;;;;;;;10.13;6.67;;;8.40;99.90;;;;;;5488293;26;20222;-74
2024/05/04 00:51:08;;;;;;;7.23;6.47;;;8.40;99.90;;;;;;5488144;26;20299;-74
2024/05/04 00:53:34;;;;;;;6.93;6.37;;;8.40;99.90;;;;;;5487721;26;20202;-74
2024/05/04 00:56:00;;;;;;;9.53;6.47;;;8.30;99.90;;;;;;5488402;26;20226;-74
2024/05/04 00:58:26;;;;;;;7.50;6.47;;;8.30;99.90;;;;;;5488557;26;20222;-74
2024/05/04 01:00:52;;;;;;;7.87;6.60;;;8.30;99.90;;;;;;5499195;26;20903;-74
2024/05/04 01:03:17;;;;;;;7.57;6.90;;;8.30;99.90;;;;;;5526273;26;20622;-74
2024/05/04 01:05:43;;;;;;;8.40;6.37;;;8.40;99.90;;;;;;5526366;26;20286;-74
2024/05/04 01:08:10;;;;;;;10.60;6.87;;;8.30;99.90;;;;;;5524148;26;20251;-74
2024/05/04 01:10:36;;;;;;;7.80;6.60;;;8.30;99.90;;;;;;5524414;26;20259;-74
2024/05/04 01:13:02;;;;;;;10.33;6.23;;;8.30;99.90;;;;;;5524129;26;20201;-74
2024/05/04 01:15:27;;;;;;;7.10;6.50;;;8.30;99.90;;;;;;5514692;26;20326;-74
2024/05/04 01:17:53;;;;;;;7.10;6.17;;;8.30;99.90;;;;;;5487933;26;20744;-74
2024/05/04 01:20:21;;;;;;;8.83;6.27;;;8.30;99.90;;;;;;5488534;26;20210;-74
2024/05/04 01:22:46;;;;;;;8.30;7.03;;;8.30;99.90;;;;;;5455280;26;20698;-74
2024/05/04 01:25:12;;;;;;;7.77;6.83;;;8.20;99.90;;;;;;5487792;26;20289;-74
2024/05/04 01:27:38;;;;;;;8.33;6.80;;;8.20;99.90;;;;;;5487459;26;20832;-74
2024/05/04 01:30:04;;;;;;;7.53;6.83;;;8.20;99.90;;;;;;5496875;26;20383;-74
2024/05/04 01:32:29;;;;;;;11.10;7.20;;;8.10;99.90;;;;;;5521244;26;20365;-74
2024/05/04 01:34:55;;;;;;;8.40;7.03;;;8.10;99.90;;;;;;5524366;26;20216;-74
2024/05/04 01:37:21;;;;;;;7.90;7.20;;;8.10;99.90;;;;;;5524191;26;20713;-74
2024/05/04 01:39:46;;;;;;;13.17;7.47;;;8.10;99.90;;;;;;5523963;26;20272;-74
2024/05/04 01:42:12;;;;;;;10.27;7.57;;;8.10;99.90;;;;;;5524239;26;20255;-74
2024/05/04 01:44:37;;;;;;;10.23;7.17;;;8.10;99.90;;;;;;5524578;26;20340;-74
2024/05/04 01:49:31;;;;;;;8.20;7.40;;;8.20;99.90;;;;;;5367456;26;20790;-73
2024/05/04 01:51:59;;;;;;;7.77;7.00;;;8.20;99.90;;;;;;5369465;26;20272;-72
2024/05/04 01:54:26;;;;;;;7.43;6.63;;;8.10;99.90;;;;;;5369227;26;20225;-73
2024/05/04 01:56:51;;;;;;;11.43;6.90;;;8.10;99.90;;;;;;5369510;26;20684;-73
2024/05/04 01:59:20;;;;;;;11.27;7.37;;;8.10;99.90;;;;;;5334852;26;20252;-73
2024/05/04 02:01:45;;;;;;;11.70;7.33;;;8.10;99.90;;;;;;5334852;26;20605;-72
2024/05/04 02:04:11;;;;;;;7.70;6.83;;;8.10;99.90;;;;;;5335249;26;20223;-73
2024/05/04 02:06:38;;;;;;;11.67;7.20;;;8.10;99.90;;;;;;5334626;26;20693;-73
2024/05/04 02:09:03;;;;;;;9.30;7.30;;;8.10;99.90;;;;;;5334727;26;20558;-73
2024/05/04 02:11:31;;;;;;;7.53;6.60;;;8.00;99.90;;;;;;5334376;26;20219;-73
2024/05/04 02:13:57;;;;;;;7.40;6.67;;;8.10;99.90;;;;;;5334590;26;20553;-73
2024/05/04 02:16:23;;;;;;;10.53;7.50;;;8.00;99.90;;;;;;5334501;26;20273;-72
2024/05/04 02:18:48;;;;;;;8.10;7.30;;;7.90;99.90;;;;;;5334012;26;20274;-73
2024/05/04 02:21:17;;;;;;;7.80;7.00;;;8.00;99.90;;;;;;5334344;26;20390;-73
2024/05/04 02:23:43;;;;;;;8.23;6.60;;;7.90;99.90;;;;;;5332860;26;20218;-72
2024/05/04 02:26:09;;;;;;;9.07;7.43;;;7.90;99.90;;;;;;5334281;26;20245;-72
2024/05/04 02:28:34;;;;;;;7.93;7.13;;;7.90;99.90;;;;;;5334554;26;20226;-73
2024/05/04 02:31:00;;;;;;;8.27;7.10;;;7.90;99.90;;;;;;5333852;26;20226;-73
2024/05/04 02:33:25;;;;;;;8.17;7.47;;;7.90;99.90;;;;;;5333766;26;20214;-73
2024/05/04 02:35:51;;;;;;;7.63;6.97;;;7.90;99.90;;;;;;5334057;26;20663;-72
2024/05/04 02:38:17;;;;;;;8.17;7.37;;;7.90;99.90;;;;;;5334649;26;20339;-73
2024/05/04 02:40:42;;;;;;;12.07;7.43;;;7.90;99.90;;;;;;5334680;26;20265;-73
2024/05/04 02:43:08;;;;;;;9.50;6.87;;;7.90;99.90;;;;;;5304407;26;20244;-73
2024/05/04 02:45:35;;;;;;;9.00;8.07;;;7.80;99.90;;;;;;5334526;26;20277;-73
2024/05/04 02:48:05;;;;;;;7.73;7.10;;;7.80;99.90;;;;;;5334383;26;20577;-73
2024/05/04 02:50:30;;;;;;;11.47;7.97;;;7.80;99.90;;;;;;5334400;26;20319;-73
2024/05/04 02:52:56;;;;;;;8.70;7.83;;;7.80;99.90;;;;;;5334152;26;20677;-73
2024/05/04 02:55:21;;;;;;;8.93;7.77;;;7.80;99.90;;;;;;5334605;26;20210;-73
2024/05/04 02:57:47;;;;;;;9.23;8.33;;;7.70;99.90;;;;;;5334524;26;20222;-73
2024/05/04 03:00:13;;;;;;;9.83;8.03;;;7.70;99.90;;;;;;5333838;26;20227;-73
2024/05/04 03:02:38;;;;;;;10.13;9.00;;;7.70;99.90;;;;;;5333731;26;20235;-73
2024/05/04 03:05:04;;;;;;;9.60;8.70;;;7.70;99.90;;;;;;5334369;26;20210;-73
2024/05/04 03:07:30;;;;;;;10.27;8.50;;;7.70;99.90;;;;;;5334157;26;20713;-72
2024/05/04 03:09:55;;;;;;;10.23;8.47;;;7.70;99.90;;;;;;5334108;26;20218;-73
2024/05/04 03:12:21;;;;;;;9.23;8.43;;;7.70;99.90;;;;;;5334055;26;20266;-73
2024/05/04 03:14:46;;;;;;;8.87;8.03;;;7.60;99.90;;;;;;5334119;26;20226;-73
2024/05/04 03:17:12;;;;;;;9.80;8.90;;;7.60;99.90;;;;;;5333812;26;20272;-72
2024/05/04 03:19:40;;;;;;;9.87;8.97;;;7.60;99.90;;;;;;5334297;26;20270;-72
2024/05/04 03:22:06;;;;;;;12.57;9.03;;;7.60;99.90;;;;;;5333696;26;20223;-73
2024/05/04 03:24:35;;;;;;;11.83;8.70;;;7.60;99.90;;;;;;5333743;26;20215;-72
2024/05/04 03:27:04;;;;;;;11.70;8.80;;;7.60;99.90;;;;;;5333887;26;20697;-73
2024/05/04 03:29:29;;;;;;;10.83;9.10;;;7.60;99.90;;;;;;5333859;26;20215;-73
2024/05/04 03:31:55;;;;;;;14.07;9.27;;;7.60;99.90;;;;;;5333099;26;20272;-73
2024/05/04 03:34:21;;;;;;;9.57;8.60;;;7.70;99.90;;;;;;5333500;26;20218;-73
2024/05/04 03:36:49;;;;;;;10.30;8.27;;;7.70;99.90;;;;;;5336371;26;20260;-73
2024/05/04 03:39:15;;;;;;;9.47;8.43;;;7.70;99.90;;;;;;5337405;26;20226;-73
2024/05/04 03:41:41;;;;;;;11.17;8.80;;;7.70;99.90;;;;;;5337080;26;20308;-73
2024/05/04 03:44:07;;;;;;;11.40;8.73;;;7.70;99.90;;;;;;5336995;26;20673;-72
2024/05/04 03:46:32;;;;;;;10.03;8.90;;;7.70;99.90;;;;;;5337135;26;20269;-73
2024/05/04 03:48:58;;;;;;;8.87;7.73;;;7.60;99.90;;;;;;5336675;26;20234;-72
2024/05/04 03:51:24;;;;;;;9.37;8.37;;;7.60;99.90;;;;;;5337247;26;20261;-72
2024/05/04 03:53:49;;;;;;;9.10;8.17;;;7.60;99.90;;;;;;5337018;26;20693;-72
2024/05/04 03:56:15;;;;;;;11.53;8.80;;;7.60;99.90;;;;;;5337901;26;20211;-72
2024/05/04 03:58:41;;;;;;;11.00;9.10;;;7.60;99.90;;;;;;5336814;26;20628;-72
2024/05/04 04:01:08;;;;;;;11.57;8.87;;;7.60;99.90;;;;;;5336118;26;20218;-72
2024/05/04 04:03:34;;;;;;;9.63;8.80;;;7.60;99.90;;;;;;5335011;26;20270;-72
2024/05/04 04:05:59;;;;;;;9.57;8.30;;;7.60;99.90;;;;;;5334604;26;20340;-72
2024/05/04 04:08:25;;;;;;;9.83;8.77;;;7.70;99.90;;;;;;5335534;26;20235;-72
2024/05/04 04:10:50;;;;;;;12.57;9.13;;;7.60;99.90;;;;;;5335864;26;20207;-72
2024/05/04 04:13:16;;;;;;;10.57;9.00;;;7.60;99.90;;;;;;5336146;26;20315;-72
2024/05/04 04:15:42;;;;;;;14.40;9.07;;;7.70;99.90;;;;;;5335841;26;20206;-72
2024/05/04 04:18:07;;;;;;;13.97;9.20;;;7.70;99.90;;;;;;5335683;26;20657;-72
2024/05/04 04:20:33;;;;;;;10.23;9.33;;;7.70;99.90;;;;;;5336571;26;20319;-72
2024/05/04 04:22:58;;;;;;;9.63;8.73;;;7.80;99.90;;;;;;5335791;26;20261;-72
2024/05/04 04:25:24;;;;;;;12.23;9.30;;;7.80;99.90;;;;;;5336156;26;20826;-72
2024/05/04 04:27:50;;;;;;;12.00;10.10;;;7.80;99.90;;;;;;5335873;26;20230;-72
2024/05/04 04:30:18;;;;;;;11.53;10.23;;;7.90;99.90;;;;;;5337104;26;20214;-72
2024/05/04 04:32:43;;;;;;;11.93;9.87;;;7.90;99.90;;;;;;5337394;26;20235;-72
2024/05/04 04:35:09;;;;;;;15.50;10.40;;;8.00;99.90;;;;;;5337998;26;20219;-73
2024/05/04 04:37:35;;;;;;;13.10;10.23;;;8.00;99.90;;;;;;5336743;26;20331;-72
2024/05/04 04:40:01;;;;;;;12.10;10.80;;;8.10;99.90;;;;;;5336586;26;20672;-72
2024/05/04 04:42:26;;;;;;;14.60;11.10;;;8.10;99.90;;;;;;5335857;26;20215;-72
2024/05/04 04:44:52;;;;;;;13.57;10.97;;;8.20;99.90;;;;;;5336409;26;20215;-72
2024/05/04 04:47:18;;;;;;;15.80;10.60;;;8.20;99.90;;;;;;5335739;26;20666;-73
2024/05/04 04:49:43;;;;;;;11.40;10.23;;;8.20;99.90;;;;;;5336840;26;20550;-72
2024/05/04 04:52:09;;;;;;;14.47;12.03;;;8.30;99.90;;;;;;5336649;26;20316;-72
2024/05/04 04:54:35;;;;;;;14.43;11.97;;;8.30;99.90;;;;;;5336537;26;20213;-72
2024/05/04 04:57:01;;;;;;;13.27;10.77;;;8.40;99.90;;;;;;5336519;26;20223;-72
2024/05/04 04:59:27;;;;;;;13.53;11.60;;;8.40;99.90;;;;;;5336488;26;20222;-73
2024/05/04 05:01:52;;;;;;;12.97;11.30;;;8.50;99.90;;;;;;5335150;26;20331;-72
2024/05/04 05:04:18;;;;;;;14.87;11.60;;;8.50;99.90;;;;;;5336005;26;20273;-72
2024/05/04 05:06:43;;;;;;;12.93;11.27;;;8.50;99.90;;;;;;5335928;26;20569;-72
2024/05/04 05:09:09;;;;;;;13.57;11.57;;;8.60;99.90;;;;;;5336175;26;20242;-72
2024/05/04 05:11:36;;;;;;;16.63;11.03;;;8.70;99.90;;;;;;5335651;26;20214;-72
2024/05/04 05:14:04;;;;;;;12.57;11.23;;;8.70;99.90;;;;;;5335610;26;20245;-72
2024/05/04 05:16:30;;;;;;;15.37;11.30;;;8.80;99.90;;;;;;5336093;26;20245;-73
2024/05/04 05:18:55;;;;;;;15.57;11.17;;;8.90;99.90;;;;;;5335579;26;20227;-72
2024/05/04 05:21:21;;;;;;;12.77;10.87;;;8.90;99.90;;;;;;5335305;26;20580;-72
2024/05/04 05:23:47;;;;;;;17.57;11.60;;;9.00;99.90;;;;;;5332751;26;20323;-72
2024/05/04 05:26:13;;;;;;;14.63;10.33;;;9.00;99.90;;;;;;5334739;26;20329;-72
2024/05/04 05:28:38;;;;;;;13.57;11.10;;;9.10;99.90;;;;;;5335009;26;20269;-73
2024/05/04 05:31:06;;;;;;;13.23;11.50;;;9.20;99.90;;;;;;5334896;26;20277;-72
2024/05/04 05:33:32;;;;;;;13.77;12.40;;;9.20;99.90;;;;;;5334911;26;20611;-72
2024/05/04 05:35:57;;;;;;;12.57;11.23;;;9.30;99.90;;;;;;5335066;26;20254;-72
2024/05/04 05:38:23;;;;;;;14.00;11.83;;;9.30;99.90;;;;;;5334870;26;20234;-72
2024/05/04 05:40:48;;;;;;;16.53;12.20;;;9.40;99.90;;;;;;5334626;26;20219;-72
2024/05/04 05:43:14;;;;;;;15.43;11.13;;;9.50;99.90;;;;;;5332960;26;20248;-72
2024/05/04 05:45:39;;;;;;;16.37;12.77;;;9.70;99.90;;;;;;5335057;26;20311;-72
2024/05/04 05:48:06;;;;;;;15.13;11.80;;;9.80;99.90;;;;;;5334798;26;20261;-72
2024/05/04 05:50:32;;;;;;;15.07;12.27;;;10.00;99.90;;;;;;5334983;26;20214;-72
2024/05/04 05:52:57;;;;;;;12.03;10.83;;;10.10;99.90;;;;;;5334367;26;20693;-72
2024/05/04 05:55:23;;;;;;;13.53;12.03;;;10.20;99.90;;;;;;5334773;26;20210;-71
2024/05/04 05:57:48;;;;;;;13.50;12.20;;;10.40;99.90;;;;;;5332972;26;20234;-72
2024/05/04 06:00:15;;;;;;;12.60;11.30;;;10.50;99.90;;;;;;5334732;26;20215;-72
2024/05/04 06:02:45;;;;;;;15.40;11.93;;;10.70;99.90;;;;;;5335017;26;20559;-72
2024/05/04 06:05:12;;;;;;;11.97;10.47;;;10.90;99.90;;;;;;5334903;26;20226;-72
2024/05/04 06:07:38;;;;;;;14.00;11.13;;;11.10;99.90;;;;;;5332666;26;20242;-72
2024/05/04 06:10:04;;;;;;;12.57;10.50;;;11.40;99.90;;;;;;5334277;26;20724;-72
2024/05/04 06:12:29;;;;;;;12.70;10.43;;;11.60;99.90;;;;;;5334051;26;20219;-72
2024/05/04 06:14:58;;;;;;;12.87;10.70;;;11.80;99.90;;;;;;5334442;26;20257;-72
2024/05/04 06:17:27;;;;;;;12.00;10.10;;;12.00;99.90;;;;;;5334447;26;20354;-72
2024/05/04 06:19:57;;;;;;;11.33;10.10;;;12.40;99.90;;;;;;5341567;26;20257;-72
2024/05/04 06:22:23;;;;;;;9.70;8.70;;;12.80;99.90;;;;;;5333613;26;20214;-72
2024/05/04 06:24:49;;;;;;;9.37;8.47;;;13.00;99.90;;;;;;5334067;26;20331;-72
2024/05/04 06:27:17;;;;;;;10.43;8.50;;;13.30;99.90;;;;;;5334154;26;20298;-72
2024/05/04 06:29:44;;;;;;;8.73;7.47;;;13.60;99.90;;;;;;5334369;26;20223;-72
2024/05/04 06:32:10;;;;;;;7.80;7.10;;;13.90;99.90;;;;;;5334011;26;20323;-72
2024/05/04 06:34:39;;;;;;;7.40;6.70;;;14.20;99.90;;;;;;5333656;26;20215;-72
2024/05/04 06:37:04;;;;;;;6.70;6.00;;;14.40;99.90;;;;;;5330123;26;20226;-72
2024/05/04 06:39:30;;;;;;;6.17;5.30;;;14.60;99.90;;;;;;5333792;26;20264;-73
2024/05/04 06:41:58;;;;;;;5.73;5.07;;;14.60;99.90;;;;;;5331818;26;20254;-72
2024/05/04 06:44:25;;;;;;;6.13;5.20;;;14.60;99.90;;;;;;5333805;26;20245;-72
2024/05/04 06:46:52;;;;;;;5.57;4.73;;;14.70;99.90;;;;;;5333575;26;20269;-72
2024/05/04 06:49:17;;;;;;;7.13;5.17;;;14.70;99.90;;;;;;5333449;26;20222;-72
2024/05/04 06:51:43;;;;;;;5.23;4.50;;;14.70;99.90;;;;;;5333598;26;20226;-72
2024/05/04 06:54:09;;;;;;;5.60;4.63;;;14.70;99.90;;;;;;5332614;26;20265;-72
2024/05/04 06:56:35;;;;;;;6.73;4.07;;;14.80;99.90;;;;;;5333368;26;20219;-73
2024/05/04 06:59:01;;;;;;;4.67;4.27;;;14.80;99.90;;;;;;5333214;26;20351;-72
2024/05/04 07:01:27;;;;;;;5.77;4.63;;;14.80;99.90;;;;;;5333164;26;20249;-72
2024/05/04 07:03:52;;;;;;;4.30;3.90;;;14.90;99.90;;;;;;5332526;26;20554;-72
2024/05/04 07:06:18;;;;;;;5.77;3.90;;;15.00;99.90;;;;;;5333407;26;20704;-72
2024/05/04 07:08:43;;;;;;;5.77;4.30;;;15.00;99.90;;;;;;5332845;26;20327;-72
2024/05/04 07:11:09;;;;;;;4.13;3.73;;;15.10;99.90;;;;;;5336355;26;20214;-72
2024/05/04 07:13:35;;;;;;;5.33;4.10;;;15.10;99.90;;;;;;5336527;26;20230;-73
2024/05/04 07:16:00;;;;;;;5.07;4.07;;;15.20;99.90;;;;;;5306241;26;20654;-73
2024/05/04 07:18:26;;;;;;;4.60;4.10;;;15.20;99.90;;;;;;5336512;26;20282;-73
2024/05/04 07:20:52;;;;;;;6.60;3.63;;;15.20;99.90;;;;;;5336044;26;20234;-72
2024/05/04 07:23:18;;;;;;;5.73;4.10;;;15.20;99.90;;;;;;5336403;26;20323;-73
2024/05/04 07:25:43;;;;;;;6.47;4.13;;;15.20;99.90;;;;;;5336713;26;20735;-70
2024/05/04 07:28:09;;;;;;;4.43;3.43;;;15.20;99.90;;;;;;5336417;26;20273;-70
2024/05/04 07:30:35;;;;;;;6.37;3.70;;;15.40;99.90;;;;;;5336534;26;20306;-73
2024/05/04 07:33:00;;;;;;;4.47;3.57;;;15.70;99.90;;;;;;5336360;26;20304;-71
2024/05/04 07:35:26;;;;;;;3.90;3.57;;;16.00;99.90;;;;;;5336886;26;20218;-73
2024/05/04 07:37:52;;;;;;;7.17;4.30;;;16.30;99.90;;;;;;5336681;26;20226;-72
2024/05/04 07:40:17;;;;;;;5.63;3.90;;;16.60;99.90;;;;;;5336160;26;20211;-71
2024/05/04 07:42:43;;;;;;;6.13;3.53;;;16.80;99.90;;;;;;5336436;26;20292;-73
2024/05/04 07:45:09;;;;;;;6.50;3.70;;;16.80;99.90;;;;;;5336337;26;20279;-71
2024/05/04 07:47:35;;;;;;;4.43;3.30;;;16.90;99.40;;;;;;5336289;26;20249;-71
2024/05/04 07:50:01;;;;;;;5.37;3.30;;;16.90;6.00;;;;;;5335567;26;20207;-70
2024/05/04 07:52:29;;;;;;;7.10;3.77;;;16.80;1.00;;;;;;5336330;26;20248;-70
2024/05/04 07:54:54;;;;;;;3.67;3.37;;;16.80;1.00;;;;;;5336477;26;20215;-71
2024/05/04 07:57:21;;;;;;;5.17;3.80;;;16.90;1.00;;;;;;5336548;26;20250;-71
2024/05/04 07:59:47;;;;;;;5.60;3.67;;;17.00;1.00;;;;;;5336113;26;20206;-71
2024/05/04 08:02:12;;;;;;;4.30;3.60;;;17.10;1.00;;;;;;5336114;26;20740;-71
2024/05/04 08:04:38;;;;;;;4.20;3.40;;;17.10;1.00;;;;;;5335892;26;20267;-71
2024/05/04 08:07:04;;;;;;;6.33;4.33;;;17.20;1.00;;;;;;5336112;26;20230;-71
2024/05/04 08:09:29;;;;;;;4.37;3.90;;;17.40;1.00;;;;;;5336086;26;20211;-71
2024/05/04 08:11:55;;;;;;;4.43;3.73;;;17.50;1.00;;;;;;5335700;26;20253;-71
2024/05/04 08:14:20;;;;;;;8.20;3.90;;;17.50;1.00;;;;;;5335893;26;20218;-71
2024/05/04 08:16:46;;;;;;;4.10;3.70;;;17.60;1.00;;;;;;5335896;26;20211;-71
2024/05/04 08:19:12;;;;;;;7.63;3.83;;;17.70;1.00;;;;;;5335540;26;20226;-71
2024/05/04 08:21:37;;;;;;;5.77;3.57;;;17.90;1.00;;;;;;5335148;26;20523;-71
2024/05/04 08:24:08;;;;;;;6.23;3.23;;;18.10;1.00;;;;;;5335455;26;20215;-71
2024/05/04 08:26:34;;;;;;;5.80;3.43;;;18.20;1.00;;;;;;5333439;26;20370;-71
2024/05/04 08:29:00;;;;;;;5.07;3.50;;;18.30;1.00;;;;;;5335251;26;20302;-71
2024/05/04 08:31:25;;;;;;;3.70;3.20;;;18.40;1.00;;;;;;5334803;26;20214;-71
2024/05/04 08:33:51;;;;;;;5.43;3.37;;;18.60;1.00;;;;;;5335426;26;20327;-71
2024/05/04 08:36:16;;;;;;;5.47;3.27;;;18.70;1.00;;;;;;5335478;26;20706;-71
2024/05/04 08:38:42;;;;;;;5.53;3.00;;;18.80;99.90;;;;;;5336093;26;20316;-71
2024/05/04 08:41:08;;;;;;;4.23;2.97;;;18.80;99.90;;;;;;5335166;26;20210;-71
2024/05/04 08:43:33;;;;;;;3.40;3.10;;;18.80;99.90;;;;;;5335570;26;20211;-71
2024/05/04 08:46:02;;;;;;;6.60;3.73;;;19.00;99.90;;;;;;5335666;26;20211;-71
2024/05/04 08:48:32;;;;;;;3.70;3.40;;;19.20;99.90;;;;;;5335840;26;20230;-71
2024/05/04 08:51:00;;;;;;;4.40;3.23;;;19.30;99.90;;;;;;5335936;26;20252;-71
2024/05/04 08:53:25;;;;;;;4.80;3.00;;;19.30;99.90;;;;;;5334652;26;20411;-70
2024/05/04 08:55:57;;;;;;;2.70;2.50;;;19.40;99.90;;;;;;5332821;26;20238;-71
2024/05/04 08:58:23;;;;;;;4.50;2.93;;;19.50;99.90;;;;;;5335218;26;20238;-71
2024/05/04 09:00:54;;;;;;;3.93;2.70;;;19.30;99.90;;;;;;5335301;26;20227;-71
2024/05/04 09:03:25;;;;;;;2.80;2.60;;;19.20;99.90;;;;;;5335356;26;20214;-71
2024/05/04 09:05:51;;;;;;;2.97;2.40;;;19.30;99.90;;;;;;5335489;26;20589;-70
2024/05/04 09:08:16;;;;;;;4.97;2.50;;;19.30;99.90;;;;;;5335075;26;20257;-71
2024/05/04 09:10:42;;;;;;;6.47;2.77;;;19.30;99.90;;;;;;5335025;26;20620;-70
2024/05/04 09:13:08;;;;;;;2.47;2.23;;;19.50;99.90;;;;;;5334608;26;20311;-70
2024/05/04 09:15:34;;;;;;;4.70;2.38;;;19.60;99.90;;;;;;5342826;26;20227;-71
2024/05/04 09:17:59;;;;;;;7.63;2.70;;;19.60;99.90;;;;;;5335056;26;20289;-71
2024/05/04 09:20:25;;;;;;;6.30;2.50;;;19.60;99.90;;;;;;5334672;26;20219;-72
2024/05/04 09:22:51;;;;;;;9.10;4.77;;;19.50;99.90;;;;;;5334981;26;20210;-71
2024/05/04 09:25:17;;;;;;;3.33;2.43;;;19.50;99.90;;;;;;5335209;26;20226;-71
2024/05/04 09:27:43;;;;;;;6.07;2.47;;;19.60;99.90;;;;;;5335012;26;20361;-71
2024/05/04 09:30:09;;;;;;;2.60;2.40;;;19.60;99.90;;;;;;5334468;26;20339;-71
2024/05/04 09:32:34;;;;;;;3.80;2.30;;;19.60;99.90;;;;;;5334511;26;20219;-71
2024/05/04 09:35:03;;;;;;;3.63;2.57;;;19.50;99.90;;;;;;5334514;26;20294;-72
2024/05/04 09:37:41;;;;;;;3.33;2.20;;;19.50;99.90;;;;;;5334688;26;20261;-71
2024/05/04 09:40:10;;;;;;;3.35;2.33;;;19.60;99.90;;;;;;5333523;26;20210;-71
2024/05/04 09:42:40;;;;;;;3.83;2.35;;;19.70;99.90;;;;;;5304971;26;20247;-71
2024/05/04 09:45:08;;;;;;;3.67;2.03;;;19.60;99.90;;;;;;5334913;26;20223;-71
2024/05/04 09:47:36;;;;;;;4.95;2.20;;;19.70;99.90;;;;;;5334561;26;20625;-72
2024/05/04 09:50:04;;;;;;;5.77;2.10;;;19.90;99.90;;;;;;5334143;26;20206;-70
2024/05/04 09:52:30;;;;;;;5.13;2.10;;;20.00;99.90;;;;;;5334389;26;20211;-70
2024/05/04 09:54:58;;;;;;;2.38;1.92;;;20.10;99.90;;;;;;5334524;26;20207;-72
2024/05/04 09:57:29;;;;;;;2.75;2.28;;;20.30;99.90;;;;;;5334367;26;20250;-71
2024/05/04 10:00:00;;;;;;;5.82;2.30;;;20.50;99.90;;;;;;5332559;26;20218;-72
2024/05/04 10:02:27;;;;;;;3.63;2.53;;;20.60;99.90;;;;;;5333305;26;20266;-71
2024/05/04 10:04:54;;;;;;;2.90;2.13;;;20.50;99.90;;;;;;5334141;26;20284;-71
2024/05/04 10:07:21;;;;;;;4.55;2.22;;;20.70;99.90;;;;;;5334019;26;20562;-71
2024/05/04 10:09:51;;;;;;;2.92;2.20;;;20.70;99.90;;;;;;5334656;26;20261;-71
2024/05/04 10:12:17;;;;;;;3.58;2.30;;;20.70;99.90;;;;;;5333930;26;20261;-72
2024/05/04 10:14:42;;;;;;;4.53;2.30;;;20.70;99.90;;;;;;5333669;26;20234;-71
2024/05/04 10:17:08;;;;;;;4.53;3.03;;;20.50;99.90;;;;;;5333214;26;20556;-71
2024/05/04 10:19:34;;;;;;;3.42;2.30;;;20.40;99.90;;;;;;5333925;26;20210;-71
2024/05/04 10:22:10;;;;;;;3.45;2.33;;;20.40;99.90;;;;;;5333280;26;20600;-71
2024/05/04 10:24:36;;;;;;;3.72;2.30;;;20.30;99.90;;;;;;5334013;26;20253;-70
2024/05/04 10:27:02;;;;;;;3.03;2.30;;;20.20;99.90;;;;;;5334029;26;20324;-71
2024/05/04 10:29:37;;;;;;;2.97;2.13;;;20.10;99.90;;;;;;5333746;26;20568;-71
2024/05/04 10:32:10;;;;;;;3.13;2.30;;;20.00;99.90;;;;;;5333426;26;20339;-71
2024/05/04 10:34:36;;;;;;;4.32;2.53;;;20.00;99.90;;;;;;5333262;26;20805;-71
2024/05/04 10:37:03;;;;;;;2.67;2.28;;;19.70;99.90;;;;;;5333570;26;20219;-71
2024/05/04 10:39:40;;;;;;;2.00;1.90;;;19.60;99.90;;;;;;5333792;26;20362;-71
2024/05/04 10:42:06;;;;;;;2.20;2.00;;;19.70;99.90;;;;;;5333207;26;20363;-71
2024/05/04 10:44:34;;;;;;;4.78;2.45;;;19.80;99.90;;;;;;5334825;26;20211;-71
2024/05/04 10:47:00;;;;;;;4.00;2.20;;;20.00;99.90;;;;;;5337328;26;20257;-71
2024/05/04 10:49:26;;;;;;;4.80;2.25;;;20.30;99.90;;;;;;5337273;26;20222;-71
2024/05/04 10:51:52;;;;;;;3.13;2.20;;;20.70;99.90;;;;;;5337176;26;20315;-71
2024/05/04 10:54:19;;;;;;;4.70;2.47;;;21.00;99.90;;;;;;5336463;26;20237;-72
2024/05/04 10:56:44;;;;;;;4.70;2.35;;;21.60;99.90;;;;;;5336854;26;20596;-71
2024/05/04 10:59:10;;;;;;;2.40;2.00;;;22.00;99.90;;;;;;5337364;26;20327;-71
2024/05/04 11:01:37;;;;;;;2.35;2.15;;;22.30;99.90;;;;;;5337413;26;20231;-71
2024/05/04 11:04:04;;;;;;;4.57;2.58;;;22.30;99.90;;;;;;5336320;26;20658;-70
2024/05/04 11:06:29;;;;;;;2.85;2.38;;;22.20;99.90;;;;;;5336936;26;20735;-70
2024/05/04 11:08:55;;;;;;;3.38;2.10;;;22.10;99.90;;;;;;5337463;26;20230;-70
2024/05/04 11:11:21;;;;;;;2.72;2.05;;;22.00;99.90;;;;;;5336691;26;20253;-70
2024/05/04 11:13:56;;;;;;;5.35;2.10;;;21.80;99.90;;;;;;5337052;26;20602;-71
2024/05/04 11:16:32;;;;;;;3.78;2.03;;;21.70;99.90;;;;;;5337036;26;20222;-72
2024/05/04 11:19:00;;;;;;;2.30;2.08;;;21.60;99.90;;;;;;5336747;26;20277;-72
2024/05/04 11:21:39;;;;;;;4.35;2.00;;;21.70;99.90;;;;;;5336478;26;20260;-71
2024/05/04 11:24:15;;;;;;;4.82;1.98;;;22.10;99.90;;;;;;5336876;26;20701;-71
2024/05/04 11:26:44;;;;;;;2.25;2.00;;;22.50;99.90;;;;;;5337285;26;20557;-71
2024/05/04 11:29:15;;;;;;;2.67;2.13;;;22.90;99.90;;;;;;5336185;26;20238;-71
2024/05/04 11:31:41;;;;;;;6.47;2.50;;;23.30;99.90;;;;;;5336374;26;20262;-70
2024/05/04 11:34:07;;;;;;;2.60;2.20;;;23.60;99.90;;;;;;5344424;26;20694;-70
2024/05/04 11:36:33;;;;;;;4.47;2.33;;;23.70;99.90;;;;;;5336772;26;20576;-71
2024/05/04 11:38:58;;;;;;;2.95;2.10;;;23.80;99.90;;;;;;5336874;26;20222;-70
2024/05/04 11:41:24;;;;;;;2.25;2.05;;;23.90;99.90;;;;;;5336854;26;20249;-70
2024/05/04 11:43:50;;;;;;;2.67;2.00;;;23.80;99.90;;;;;;5334212;26;20328;-70
2024/05/04 11:46:15;;;;;;;2.20;2.00;;;23.90;99.90;;;;;;5336646;26;20211;-70
2024/05/04 11:48:42;;;;;;;3.38;2.30;;;23.80;99.90;;;;;;5336199;26;20238;-70
2024/05/04 11:51:08;;;;;;;3.70;2.38;;;23.60;99.90;;;;;;5336204;26;20249;-71
2024/05/04 11:53:33;;;;;;;1.90;1.80;;;23.30;99.90;;;;;;5336171;26;20226;-70
2024/05/04 11:55:59;;;;;;;3.05;1.95;;;23.10;99.90;;;;;;5334944;26;20378;-70
2024/05/04 11:58:25;;;;;;;3.45;2.03;;;23.00;99.90;;;;;;5336460;26;20238;-70
2024/05/04 12:00:51;;;;;;;3.38;2.05;;;23.20;99.90;;;;;;5336954;26;20752;-71
2024/05/04 12:03:17;;;;;;;2.08;1.92;;;23.40;99.90;;;;;;5336366;26;20331;-70
2024/05/04 12:05:43;;;;;;;2.58;2.03;;;23.30;99.90;;;;;;5336894;26;20298;-71
2024/05/04 12:08:08;;;;;;;1.98;1.77;;;23.30;99.90;;;;;;5336935;26;20222;-70
2024/05/04 12:10:34;;;;;;;3.67;2.10;;;23.00;99.90;;;;;;5337164;26;20364;-70
2024/05/04 12:12:59;;;;;;;4.68;2.22;;;22.50;99.90;;;;;;5336796;26;20266;-70
2024/05/04 12:15:25;;;;;;;4.57;2.00;;;21.90;99.90;;;;;;5337841;26;20338;-70
2024/05/04 12:17:51;;;;;;;2.17;1.98;;;21.60;99.90;;;;;;5337145;26;20223;-71
2024/05/04 12:20:16;;;;;;;2.42;1.85;;;21.40;99.90;;;;;;5336661;26;20258;-70
2024/05/04 12:22:42;;;;;;;2.30;2.10;;;21.30;99.90;;;;;;5336848;26;20633;-70
2024/05/04 12:25:07;;;;;;;2.53;2.10;;;21.30;99.90;;;;;;5336474;26;20211;-70
2024/05/04 12:27:33;;;;;;;2.20;2.00;;;21.40;99.90;;;;;;5337310;26;20219;-71
2024/05/04 12:29:59;;;;;;;3.05;2.10;;;21.60;99.90;;;;;;5337246;26;20219;-70
2024/05/04 12:32:25;;;;;;;2.72;2.00;;;21.80;99.90;;;;;;5337334;26;20634;-70
2024/05/04 12:34:50;;;;;;;3.97;2.20;;;21.90;99.90;;;;;;5337589;26;20737;-71
2024/05/04 12:37:16;;;;;;;2.70;2.00;;;22.10;99.90;;;;;;5337568;26;20238;-70
2024/05/04 12:39:42;;;;;;;4.43;2.28;;;22.20;99.90;;;;;;5338228;26;20322;-71
2024/05/04 12:42:07;;;;;;;3.47;1.70;;;22.20;99.90;;;;;;5337621;26;20219;-70
2024/05/04 12:44:35;;;;;;;2.90;1.95;;;22.40;99.90;;;;;;5336971;26;20219;-70